createdAt,value
2023-03-04T00:04:46.204Z,101110.47
2023-03-04T00:09:45.545Z,101107.19
2023-03-04T00:14:42.039Z,101116.09
2023-03-04T00:19:38.495Z,101113.34
2023-03-04T00:24:35.205Z,101108.84
2023-03-04T00:29:31.582Z,101116.50
2023-03-04T00:34:27.961Z,101112.06
2023-03-04T00:39:24.822Z,101102.91
2023-03-04T00:44:21.515Z,101101.25
2023-03-04T00:49:17.888Z,101099.50
2023-03-04T00:54:14.273Z,101087.97
2023-03-04T00:59:10.644Z,101097.34
2023-03-04T01:04:07.124Z,101092.53
2023-03-04T01:09:03.704Z,101087.97
2023-03-04T01:14:00.141Z,101092.94
2023-03-04T01:18:56.500Z,101087.66
2023-03-04T01:23:52.870Z,101090.16
2023-03-04T01:28:49.265Z,101085.69
2023-03-04T01:33:45.722Z,101075.72
2023-03-04T01:38:42.182Z,101068.41
2023-03-04T01:43:39.030Z,101056.78
2023-03-04T01:48:38.108Z,101058.38
2023-03-04T01:53:34.539Z,101044.06
2023-03-04T01:58:32.645Z,101044.03
2023-03-04T02:03:29.192Z,101030.06
2023-03-04T02:08:25.701Z,101026.44
2023-03-04T02:13:22.138Z,101027.38
2023-03-04T02:18:21.621Z,101016.84
2023-03-04T02:23:35.325Z,101021.84
2023-03-04T02:28:31.749Z,101018.25
2023-03-04T02:33:28.326Z,101012.03
2023-03-04T02:38:25.075Z,101013.94
2023-03-04T02:43:21.615Z,101011.44
2023-03-04T02:48:21.804Z,101009.00
2023-03-04T02:53:20.652Z,101008.63
2023-03-04T02:58:17.039Z,101004.00
2023-03-04T03:03:13.500Z,101005.81
2023-03-04T03:08:09.925Z,101008.56
2023-03-04T03:13:06.325Z,101002.47
2023-03-04T03:18:02.708Z,101003.38
2023-03-04T03:22:59.161Z,100994.63
2023-03-04T03:27:55.625Z,100984.13
2023-03-04T03:32:52.052Z,100982.44
2023-03-04T03:37:49.080Z,100984.13
2023-03-04T03:42:45.513Z,100978.88
2023-03-04T03:47:41.941Z,100977.81
2023-03-04T03:52:38.416Z,100974.41
2023-03-04T03:57:34.811Z,100985.84
2023-03-04T04:02:31.289Z,100977.91
2023-03-04T04:07:27.730Z,100974.56
2023-03-04T04:12:24.104Z,100968.47
2023-03-04T04:17:20.505Z,100964.13
2023-03-04T04:22:19.481Z,100967.44
2023-03-04T04:27:15.929Z,100962.16
2023-03-04T04:32:13.254Z,100962.16
2023-03-04T04:37:09.718Z,100956.97
2023-03-04T04:42:06.084Z,100953.41
2023-03-04T04:47:02.428Z,100948.16
2023-03-04T04:51:58.945Z,100947.28
2023-03-04T04:56:55.468Z,100949.00
2023-03-04T05:01:52.002Z,100943.69
2023-03-04T05:06:48.403Z,100950.78
2023-03-04T05:11:44.863Z,100950.72
2023-03-04T05:16:41.263Z,100949.06
2023-03-04T05:21:37.698Z,100952.50
2023-03-04T05:26:34.132Z,100959.53
2023-03-04T05:31:30.840Z,100951.66
2023-03-04T05:36:27.335Z,100955.19
2023-03-04T05:41:23.750Z,100951.66
2023-03-04T05:46:26.340Z,100960.72
2023-03-04T05:51:23.316Z,100965.16
2023-03-04T05:56:20.614Z,100967.81
2023-03-04T06:01:17.432Z,100976.88
2023-03-04T06:06:13.903Z,100971.88
2023-03-04T06:11:10.314Z,100966.84
2023-03-04T06:16:07.238Z,100970.50
2023-03-04T06:21:03.814Z,100973.31
2023-03-04T06:26:01.517Z,100976.03
2023-03-04T06:30:58.197Z,100970.75
2023-03-04T06:35:56.983Z,100968.91
2023-03-04T06:40:56.713Z,100972.28
2023-03-04T06:45:53.959Z,100982.88
2023-03-04T06:50:50.344Z,100985.56
2023-03-04T06:55:47.603Z,100995.13
2023-03-04T07:00:45.038Z,100994.31
2023-03-04T07:05:42.713Z,100987.09
2023-03-04T07:10:39.169Z,100990.47
2023-03-04T07:15:36.226Z,100992.06
2023-03-04T07:20:32.695Z,100988.38
2023-03-04T07:25:29.149Z,100991.63
2023-03-04T07:30:25.564Z,100987.16
2023-03-04T07:35:21.915Z,100986.94
2023-03-04T07:40:18.515Z,100986.19
2023-03-04T07:45:14.878Z,100980.00
2023-03-04T07:50:12.633Z,100986.34
2023-03-04T07:55:10.768Z,100997.69
2023-03-04T08:00:08.000Z,100989.97
2023-03-04T08:05:04.754Z,100990.84
2023-03-04T08:10:01.142Z,100987.09
2023-03-04T08:14:57.504Z,100997.44
2023-03-04T08:19:53.873Z,100994.03
2023-03-04T08:24:50.374Z,100998.41
2023-03-04T08:29:46.737Z,100997.78
2023-03-04T08:34:43.124Z,101008.31
2023-03-04T08:39:39.487Z,101006.41
2023-03-04T08:44:35.851Z,100999.19
2023-03-04T08:49:32.187Z,100995.84
2023-03-04T08:54:28.543Z,101004.63
2023-03-04T08:59:25.238Z,101004.47
2023-03-04T09:04:21.686Z,101004.47
2023-03-04T09:09:18.061Z,101012.72
2023-03-04T09:14:14.424Z,101007.59
2023-03-04T09:19:10.868Z,101019.09
2023-03-04T09:24:07.410Z,101011.91
2023-03-04T09:29:04.767Z,101014.69
2023-03-04T09:34:01.136Z,101013.72
2023-03-04T09:39:01.742Z,101012.22
2023-03-04T09:43:58.208Z,101016.84
2023-03-04T09:48:56.386Z,101014.03
2023-03-04T09:54:27.120Z,101017.13
2023-03-04T09:59:41.524Z,101017.75
2023-03-04T10:04:47.135Z,101018.56
2023-03-04T10:09:53.803Z,101010.91
2023-03-04T10:14:55.857Z,101015.25
2023-03-04T10:20:06.895Z,101009.09
2023-03-04T10:25:20.806Z,101022.53
2023-03-04T10:30:32.456Z,101018.25
2023-03-04T10:35:36.598Z,101022.00
2023-03-04T10:40:39.258Z,101023.25
2023-03-04T10:45:40.276Z,101019.03
2023-03-04T10:50:36.658Z,101012.50
2023-03-04T10:55:44.929Z,101002.09
2023-03-04T11:00:41.704Z,101004.22
2023-03-04T11:05:38.067Z,101000.25
2023-03-04T11:10:37.239Z,101002.50
2023-03-04T11:15:50.558Z,100983.31
2023-03-04T11:20:49.374Z,100961.72
2023-03-04T11:25:49.836Z,100944.75
2023-03-04T11:30:50.234Z,100925.34
2023-03-04T11:36:25.788Z,100915.06
2023-03-04T11:41:30.584Z,100926.38
2023-03-04T11:46:42.378Z,100914.13
2023-03-04T11:51:45.348Z,100910.56
2023-03-04T11:56:52.365Z,100907.59
2023-03-04T12:02:08.098Z,100898.78
2023-03-04T12:07:22.368Z,100892.41
2023-03-04T12:12:33.745Z,100894.53
2023-03-04T12:18:00.849Z,100872.59
2023-03-04T12:23:13.448Z,100875.78
2023-03-04T12:28:54.953Z,100866.78
2023-03-04T12:34:00.464Z,100850.97
2023-03-04T12:38:56.770Z,100853.03
2023-03-04T12:43:58.635Z,100846.19
2023-03-04T12:49:18.023Z,100843.88
2023-03-04T12:54:26.161Z,100827.06
2023-03-04T12:59:26.548Z,100835.03
2023-03-04T13:04:53.137Z,100842.53
2023-03-04T13:10:13.179Z,100831.09
2023-03-04T13:15:09.504Z,100814.63
2023-03-04T13:20:33.770Z,100824.25
2023-03-04T13:25:30.319Z,100812.66
2023-03-04T13:30:32.820Z,100824.94
2023-03-04T13:35:48.018Z,100815.56
2023-03-04T13:40:44.629Z,100805.09
2023-03-04T13:45:41.027Z,100810.75
2023-03-04T16:21:43.026Z,100778.59
2023-03-04T16:26:39.442Z,100780.28
2023-03-04T16:31:36.006Z,100776.75
2023-03-04T16:36:32.655Z,100768.47
2023-03-04T16:41:32.856Z,100777.66
2023-03-04T16:46:30.186Z,100775.94
2023-03-04T16:51:27.362Z,100760.78
2023-03-04T16:56:23.968Z,100771.47
2023-03-04T17:01:23.380Z,100772.88
2023-03-04T17:06:20.836Z,100778.28
2023-03-04T17:11:20.273Z,100792.88
2023-03-04T17:16:17.113Z,100801.06
2023-03-04T17:21:18.095Z,100809.22
2023-03-04T17:26:15.596Z,100806.59
2023-03-04T17:31:14.052Z,100812.00
2023-03-04T17:36:12.113Z,100808.78
2023-03-04T17:41:15.824Z,100820.19
2023-03-04T17:46:14.434Z,100818.53
2023-03-04T17:51:11.779Z,100814.44
2023-03-04T17:56:10.734Z,100823.34
2023-03-04T18:01:16.875Z,100806.91
2023-03-04T18:06:13.336Z,100811.03
2023-03-04T18:11:10.228Z,100813.78
2023-03-04T18:16:08.872Z,100809.53
2023-03-04T18:21:05.882Z,100806.94
2023-03-04T18:26:04.297Z,100805.25
2023-03-04T18:31:01.244Z,100808.13
2023-03-04T18:36:02.914Z,100804.66
2023-03-04T18:41:01.324Z,100800.44
2023-03-04T18:46:02.065Z,100804.66
2023-03-04T18:50:58.688Z,100799.53
2023-03-04T18:56:01.476Z,100798.94
2023-03-04T19:00:59.649Z,100806.91
2023-03-04T19:05:56.110Z,100805.31
2023-03-04T19:10:52.481Z,100796.66
2023-03-04T19:15:53.551Z,100807.09
2023-03-04T19:20:50.172Z,100802.69
2023-03-04T19:25:46.802Z,100803.59
2023-03-04T19:30:43.196Z,100812.56
2023-03-04T19:35:41.679Z,100806.38
2023-03-04T19:40:40.451Z,100817.84
2023-03-04T19:45:37.208Z,100818.75
2023-03-04T19:50:33.692Z,100824.91
2023-03-04T19:55:30.124Z,100821.50
2023-03-04T20:00:26.571Z,100819.94
2023-03-04T20:05:22.979Z,100822.94
2023-03-04T20:10:19.669Z,100829.09
2023-03-04T20:15:16.170Z,100836.28
2023-03-04T20:20:12.600Z,100838.84
2023-03-04T20:25:09.078Z,100825.81
2023-03-04T20:30:05.956Z,100823.13
2023-03-04T20:35:02.386Z,100825.75
2023-03-04T20:39:58.981Z,100824.97
2023-03-04T20:44:55.429Z,100823.97
2023-03-04T20:49:51.815Z,100827.66
2023-03-04T20:54:48.230Z,100827.78
2023-03-04T20:59:44.614Z,100826.06
2023-03-04T21:04:41.260Z,100815.69
2023-03-04T21:09:37.623Z,100820.13
2023-03-04T21:14:34.042Z,100813.25
2023-03-04T21:19:33.617Z,100812.50
2023-03-04T21:24:35.525Z,100807.31
2023-03-04T21:29:32.519Z,100815.28
2023-03-04T21:34:34.629Z,100816.66
2023-03-04T21:39:31.951Z,100794.19
2023-03-04T21:44:38.524Z,100804.88
2023-03-04T21:49:44.584Z,100802.06
2023-03-04T21:54:41.009Z,100810.72
2023-03-04T21:59:38.642Z,100795.22
2023-03-04T22:04:35.462Z,100798.09
2023-03-04T22:09:32.387Z,100787.75
2023-03-04T22:14:29.508Z,100788.06
2023-03-04T22:19:30.356Z,100782.94
2023-03-04T22:24:26.832Z,100783.84
2023-03-04T22:29:23.200Z,100782.19
2023-03-04T22:34:19.631Z,100783.06
2023-03-04T22:39:21.104Z,100772.69
2023-03-04T22:44:17.679Z,100771.88
2023-03-04T22:49:14.580Z,100774.63
2023-03-04T22:54:16.425Z,100772.91
2023-03-04T22:59:13.601Z,100749.22
2023-03-04T23:04:09.991Z,100751.13
2023-03-04T23:09:06.789Z,100740.66
2023-03-04T23:14:06.875Z,100743.28
2023-03-04T23:19:05.080Z,100749.53
2023-03-04T23:24:03.299Z,100743.38
2023-03-04T23:29:01.601Z,100741.63
2023-03-04T23:33:59.144Z,100734.53
2023-03-04T23:38:56.308Z,100731.13
2023-03-04T23:43:54.491Z,100732.84
2023-03-04T23:48:52.460Z,100740.78
2023-03-04T23:53:48.853Z,100726.84
2023-03-04T23:58:46.235Z,100726.00
